sensor_id;sensor_type;location;lat;lon;timestamp;temperature;humidity
9311;DHT22;4694;52.464;13.480;2022-08-25T00:01:01;20.30;99.90
9311;DHT22;4694;52.464;13.480;2022-08-25T00:03:27;20.30;99.90
9311;DHT22;4694;52.464;13.480;2022-08-25T00:05:54;20.20;99.90
9311;DHT22;4694;52.464;13.480;2022-08-25T00:08:20;20.50;99.90
9311;DHT22;4694;52.464;13.480;2022-08-25T00:10:47;20.40;99.90
9311;DHT22;4694;52.464;13.480;2022-08-25T00:13:14;20.50;99.90
9311;DHT22;4694;52.464;13.480;2022-08-25T00:15:41;20.30;99.90
9311;DHT22;4694;52.464;13.480;2022-08-25T00:18:08;20.20;99.90
9311;DHT22;4694;52.464;13.480;2022-08-25T00:20:35;20.50;99.90
9311;DHT22;4694;52.464;13.480;2022-08-25T00:23:01;20.10;99.90
9311;DHT22;4694;52.464;13.480;2022-08-25T00:25:28;20.20;99.90
9311;DHT22;4694;52.464;13.480;2022-08-25T00:27:55;20.20;99.90
9311;DHT22;4694;52.464;13.480;2022-08-25T00:30:23;20.50;99.90
9311;DHT22;4694;52.464;13.480;2022-08-25T00:32:51;20.30;99.90
9311;DHT22;4694;52.464;13.480;2022-08-25T00:35:17;20.40;99.90
9311;DHT22;4694;52.464;13.480;2022-08-25T00:37:44;20.20;99.90
9311;DHT22;4694;52.464;13.480;2022-08-25T00:40:11;20.00;99.90
9311;DHT22;4694;52.464;13.480;2022-08-25T00:42:38;20.00;99.90
9311;DHT22;4694;52.464;13.480;2022-08-25T00:45:07;20.20;99.90
9311;DHT22;4694;52.464;13.480;2022-08-25T00:47:34;20.00;99.90
9311;DHT22;4694;52.464;13.480;2022-08-25T00:50:05;20.10;99.90
9311;DHT22;4694;52.464;13.480;2022-08-25T00:52:35;20.00;99.90
9311;DHT22;4694;52.464;13.480;2022-08-25T00:55:06;20.10;99.90
9311;DHT22;4694;52.464;13.480;2022-08-25T00:57:41;20.00;99.90
9311;DHT22;4694;52.464;13.480;2022-08-25T01:00:13;19.90;99.90
9311;DHT22;4694;52.464;13.480;2022-08-25T01:02:40;19.80;99.90
9311;DHT22;4694;52.464;13.480;2022-08-25T01:05:08;20.20;99.90
9311;DHT22;4694;52.464;13.480;2022-08-25T01:07:35;19.90;99.90
9311;DHT22;4694;52.464;13.480;2022-08-25T01:10:03;19.90;99.90
9311;DHT22;4694;52.464;13.480;2022-08-25T01:12:32;19.90;99.90
9311;DHT22;4694;52.464;13.480;2022-08-25T01:15:01;20.00;99.90
9311;DHT22;4694;52.464;13.480;2022-08-25T01:17:34;19.90;99.90
9311;DHT22;4694;52.464;13.480;2022-08-25T01:20:01;19.90;99.90
9311;DHT22;4694;52.464;13.480;2022-08-25T01:22:28;19.80;99.90
9311;DHT22;4694;52.464;13.480;2022-08-25T01:24:59;19.80;99.90
9311;DHT22;4694;52.464;13.480;2022-08-25T01:27:28;19.80;99.90
9311;DHT22;4694;52.464;13.480;2022-08-25T01:29:54;19.70;99.90
9311;DHT22;4694;52.464;13.480;2022-08-25T01:32:22;19.80;99.90
9311;DHT22;4694;52.464;13.480;2022-08-25T01:34:49;19.70;99.90
9311;DHT22;4694;52.464;13.480;2022-08-25T01:37:15;19.80;99.90
9311;DHT22;4694;52.464;13.480;2022-08-25T01:39:45;19.80;99.90
9311;DHT22;4694;52.464;13.480;2022-08-25T01:42:18;19.90;99.90
9311;DHT22;4694;52.464;13.480;2022-08-25T01:44:48;19.70;99.90
9311;DHT22;4694;52.464;13.480;2022-08-25T01:47:15;19.70;99.90
9311;DHT22;4694;52.464;13.480;2022-08-25T01:49:42;19.70;99.90
9311;DHT22;4694;52.464;13.480;2022-08-25T01:52:11;19.60;99.90
9311;DHT22;4694;52.464;13.480;2022-08-25T01:54:40;19.70;99.90
9311;DHT22;4694;52.464;13.480;2022-08-25T01:57:08;19.50;99.90
9311;DHT22;4694;52.464;13.480;2022-08-25T01:59:35;19.60;99.90
9311;DHT22;4694;52.464;13.480;2022-08-25T02:02:02;19.50;99.90
9311;DHT22;4694;52.464;13.480;2022-08-25T02:04:28;19.60;99.90
9311;DHT22;4694;52.464;13.480;2022-08-25T02:06:56;19.60;99.90
9311;DHT22;4694;52.464;13.480;2022-08-25T02:09:23;19.60;99.90
9311;DHT22;4694;52.464;13.480;2022-08-25T02:11:50;19.60;99.90
9311;DHT22;4694;52.464;13.480;2022-08-25T02:14:18;19.50;99.90
9311;DHT22;4694;52.464;13.480;2022-08-25T02:16:47;19.60;99.90
9311;DHT22;4694;52.464;13.480;2022-08-25T02:19:16;19.50;99.90
9311;DHT22;4694;52.464;13.480;2022-08-25T02:21:42;19.40;99.90
9311;DHT22;4694;52.464;13.480;2022-08-25T02:24:10;19.20;99.90
9311;DHT22;4694;52.464;13.480;2022-08-25T02:26:37;19.30;99.90
9311;DHT22;4694;52.464;13.480;2022-08-25T02:29:05;19.30;99.90
9311;DHT22;4694;52.464;13.480;2022-08-25T02:31:34;19.30;99.90
9311;DHT22;4694;52.464;13.480;2022-08-25T02:34:01;19.20;99.90
9311;DHT22;4694;52.464;13.480;2022-08-25T02:36:28;19.20;99.90
9311;DHT22;4694;52.464;13.480;2022-08-25T02:38:56;19.20;99.90
9311;DHT22;4694;52.464;13.480;2022-08-25T02:41:24;19.20;99.90
9311;DHT22;4694;52.464;13.480;2022-08-25T02:43:51;19.10;99.90
9311;DHT22;4694;52.464;13.480;2022-08-25T02:46:20;19.30;99.90
9311;DHT22;4694;52.464;13.480;2022-08-25T02:48:48;19.10;99.90
9311;DHT22;4694;52.464;13.480;2022-08-25T02:51:17;19.10;99.90
9311;DHT22;4694;52.464;13.480;2022-08-25T02:53:44;19.10;99.90
9311;DHT22;4694;52.464;13.480;2022-08-25T02:56:12;19.20;99.90
9311;DHT22;4694;52.464;13.480;2022-08-25T02:58:40;19.10;99.90
9311;DHT22;4694;52.464;13.480;2022-08-25T03:01:08;19.10;99.90
9311;DHT22;4694;52.464;13.480;2022-08-25T03:03:36;19.10;99.90
9311;DHT22;4694;52.464;13.480;2022-08-25T03:06:06;19.10;99.90
9311;DHT22;4694;52.464;13.480;2022-08-25T03:08:33;19.00;99.90
9311;DHT22;4694;52.464;13.480;2022-08-25T03:11:00;19.00;99.90
9311;DHT22;4694;52.464;13.480;2022-08-25T03:13:27;19.00;99.90
9311;DHT22;4694;52.464;13.480;2022-08-25T03:15:53;19.00;99.90
9311;DHT22;4694;52.464;13.480;2022-08-25T03:18:20;19.00;99.90
9311;DHT22;4694;52.464;13.480;2022-08-25T03:20:47;19.10;99.90
9311;DHT22;4694;52.464;13.480;2022-08-25T03:23:16;19.00;99.90
9311;DHT22;4694;52.464;13.480;2022-08-25T03:25:43;19.00;99.90
9311;DHT22;4694;52.464;13.480;2022-08-25T03:28:27;19.10;99.90
9311;DHT22;4694;52.464;13.480;2022-08-25T03:30:55;19.10;99.90
9311;DHT22;4694;52.464;13.480;2022-08-25T03:33:25;19.00;99.90
9311;DHT22;4694;52.464;13.480;2022-08-25T03:35:51;18.90;99.90
9311;DHT22;4694;52.464;13.480;2022-08-25T03:38:20;18.90;99.90
9311;DHT22;4694;52.464;13.480;2022-08-25T03:40:47;18.90;99.90
9311;DHT22;4694;52.464;13.480;2022-08-25T03:43:14;19.00;99.90
9311;DHT22;4694;52.464;13.480;2022-08-25T03:45:41;18.90;99.90
9311;DHT22;4694;52.464;13.480;2022-08-25T03:48:09;18.80;99.90
9311;DHT22;4694;52.464;13.480;2022-08-25T03:50:36;18.80;99.90
9311;DHT22;4694;52.464;13.480;2022-08-25T03:53:03;18.70;99.90
9311;DHT22;4694;52.464;13.480;2022-08-25T03:55:31;18.70;99.90
9311;DHT22;4694;52.464;13.480;2022-08-25T03:57:57;18.70;99.90
9311;DHT22;4694;52.464;13.480;2022-08-25T04:00:24;18.70;99.90
9311;DHT22;4694;52.464;13.480;2022-08-25T04:02:51;18.70;99.90
9311;DHT22;4694;52.464;13.480;2022-08-25T04:05:17;18.70;99.90
9311;DHT22;4694;52.464;13.480;2022-08-25T04:07:44;18.70;99.90
9311;DHT22;4694;52.464;13.480;2022-08-25T04:10:11;18.70;99.90
9311;DHT22;4694;52.464;13.480;2022-08-25T04:12:39;18.70;99.90
9311;DHT22;4694;52.464;13.480;2022-08-25T04:15:07;18.60;99.90
9311;DHT22;4694;52.464;13.480;2022-08-25T04:17:37;18.60;99.90
9311;DHT22;4694;52.464;13.480;2022-08-25T04:20:05;18.60;99.90
9311;DHT22;4694;52.464;13.480;2022-08-25T04:22:32;18.50;99.90
9311;DHT22;4694;52.464;13.480;2022-08-25T04:24:59;18.60;99.90
9311;DHT22;4694;52.464;13.480;2022-08-25T04:27:26;18.60;99.90
9311;DHT22;4694;52.464;13.480;2022-08-25T04:29:54;18.70;99.90
9311;DHT22;4694;52.464;13.480;2022-08-25T04:32:21;18.80;99.90
9311;DHT22;4694;52.464;13.480;2022-08-25T04:34:47;18.90;99.90
9311;DHT22;4694;52.464;13.480;2022-08-25T04:37:14;19.00;99.90
9311;DHT22;4694;52.464;13.480;2022-08-25T04:39:41;18.90;99.90
9311;DHT22;4694;52.464;13.480;2022-08-25T04:42:07;19.00;99.90
9311;DHT22;4694;52.464;13.480;2022-08-25T04:44:34;18.90;99.90
9311;DHT22;4694;52.464;13.480;2022-08-25T04:47:02;18.90;99.90
9311;DHT22;4694;52.464;13.480;2022-08-25T04:49:29;18.90;99.90
9311;DHT22;4694;52.464;13.480;2022-08-25T04:51:56;19.00;99.90
9311;DHT22;4694;52.464;13.480;2022-08-25T04:54:23;19.00;99.90
9311;DHT22;4694;52.464;13.480;2022-08-25T04:56:51;19.00;99.90
9311;DHT22;4694;52.464;13.480;2022-08-25T04:59:18;19.00;99.90
9311;DHT22;4694;52.464;13.480;2022-08-25T05:01:45;19.00;99.90
9311;DHT22;4694;52.464;13.480;2022-08-25T05:04:15;19.00;99.90
9311;DHT22;4694;52.464;13.480;2022-08-25T05:06:42;19.00;99.90
9311;DHT22;4694;52.464;13.480;2022-08-25T05:09:09;19.20;99.90
9311;DHT22;4694;52.464;13.480;2022-08-25T05:11:36;19.10;99.90
9311;DHT22;4694;52.464;13.480;2022-08-25T05:14:03;19.10;99.90
9311;DHT22;4694;52.464;13.480;2022-08-25T05:16:36;19.20;99.90
9311;DHT22;4694;52.464;13.480;2022-08-25T05:19:02;19.30;99.90
9311;DHT22;4694;52.464;13.480;2022-08-25T05:21:31;19.20;99.90
9311;DHT22;4694;52.464;13.480;2022-08-25T05:23:59;19.30;99.90
9311;DHT22;4694;52.464;13.480;2022-08-25T05:26:28;19.30;99.90
9311;DHT22;4694;52.464;13.480;2022-08-25T05:28:57;19.30;99.90
9311;DHT22;4694;52.464;13.480;2022-08-25T05:31:25;19.40;99.90
9311;DHT22;4694;52.464;13.480;2022-08-25T05:33:52;19.20;99.90
9311;DHT22;4694;52.464;13.480;2022-08-25T05:36:20;19.30;99.90
9311;DHT22;4694;52.464;13.480;2022-08-25T05:38:48;19.50;99.90
9311;DHT22;4694;52.464;13.480;2022-08-25T05:41:17;19.60;99.90
9311;DHT22;4694;52.464;13.480;2022-08-25T05:43:45;19.80;99.90
9311;DHT22;4694;52.464;13.480;2022-08-25T05:46:15;20.10;99.90
9311;DHT22;4694;52.464;13.480;2022-08-25T05:48:42;20.00;99.90
9311;DHT22;4694;52.464;13.480;2022-08-25T05:51:10;20.00;99.90
9311;DHT22;4694;52.464;13.480;2022-08-25T05:53:38;20.10;99.90
9311;DHT22;4694;52.464;13.480;2022-08-25T05:56:08;20.40;99.90
9311;DHT22;4694;52.464;13.480;2022-08-25T05:58:36;20.20;99.90
9311;DHT22;4694;52.464;13.480;2022-08-25T06:01:03;20.40;99.90
9311;DHT22;4694;52.464;13.480;2022-08-25T06:03:44;20.00;99.90
9311;DHT22;4694;52.464;13.480;2022-08-25T06:06:12;19.90;99.90
9311;DHT22;4694;52.464;13.480;2022-08-25T06:08:40;20.00;99.90
9311;DHT22;4694;52.464;13.480;2022-08-25T06:11:08;19.90;99.90
9311;DHT22;4694;52.464;13.480;2022-08-25T06:13:35;19.90;99.90
9311;DHT22;4694;52.464;13.480;2022-08-25T06:16:02;19.90;99.90
9311;DHT22;4694;52.464;13.480;2022-08-25T06:18:29;19.80;99.90
9311;DHT22;4694;52.464;13.480;2022-08-25T06:20:55;19.90;99.90
9311;DHT22;4694;52.464;13.480;2022-08-25T06:23:22;19.90;99.90
9311;DHT22;4694;52.464;13.480;2022-08-25T06:25:49;19.90;99.90
9311;DHT22;4694;52.464;13.480;2022-08-25T06:28:17;19.90;99.90
9311;DHT22;4694;52.464;13.480;2022-08-25T06:30:44;20.20;99.90
9311;DHT22;4694;52.464;13.480;2022-08-25T06:33:11;20.00;99.90
9311;DHT22;4694;52.464;13.480;2022-08-25T06:35:40;20.00;99.90
9311;DHT22;4694;52.464;13.480;2022-08-25T06:38:07;20.10;99.90
9311;DHT22;4694;52.464;13.480;2022-08-25T06:40:34;20.00;99.90
9311;DHT22;4694;52.464;13.480;2022-08-25T06:43:01;20.10;99.90
9311;DHT22;4694;52.464;13.480;2022-08-25T06:45:32;20.00;99.90
9311;DHT22;4694;52.464;13.480;2022-08-25T06:47:59;20.30;99.90
9311;DHT22;4694;52.464;13.480;2022-08-25T06:50:25;20.20;99.90
9311;DHT22;4694;52.464;13.480;2022-08-25T06:52:52;20.10;99.90
9311;DHT22;4694;52.464;13.480;2022-08-25T06:55:18;20.00;99.90
9311;DHT22;4694;52.464;13.480;2022-08-25T06:57:45;20.10;99.90
9311;DHT22;4694;52.464;13.480;2022-08-25T07:00:12;20.30;99.90
9311;DHT22;4694;52.464;13.480;2022-08-25T07:02:40;20.20;99.90
9311;DHT22;4694;52.464;13.480;2022-08-25T07:05:07;20.30;99.90
9311;DHT22;4694;52.464;13.480;2022-08-25T07:07:36;20.60;99.90
9311;DHT22;4694;52.464;13.480;2022-08-25T07:10:03;20.60;99.90
9311;DHT22;4694;52.464;13.480;2022-08-25T07:12:30;20.90;99.90
9311;DHT22;4694;52.464;13.480;2022-08-25T07:14:57;21.40;99.90
9311;DHT22;4694;52.464;13.480;2022-08-25T07:17:24;21.30;99.90
9311;DHT22;4694;52.464;13.480;2022-08-25T07:19:52;20.90;99.90
9311;DHT22;4694;52.464;13.480;2022-08-25T07:22:19;20.90;99.90
9311;DHT22;4694;52.464;13.480;2022-08-25T07:24:46;21.00;99.90
9311;DHT22;4694;52.464;13.480;2022-08-25T07:27:13;20.70;99.90
9311;DHT22;4694;52.464;13.480;2022-08-25T07:29:41;20.90;99.90
9311;DHT22;4694;52.464;13.480;2022-08-25T07:32:07;21.20;99.90
9311;DHT22;4694;52.464;13.480;2022-08-25T07:34:34;21.80;99.90
9311;DHT22;4694;52.464;13.480;2022-08-25T07:37:17;22.30;99.90
9311;DHT22;4694;52.464;13.480;2022-08-25T07:39:44;22.00;99.90
9311;DHT22;4694;52.464;13.480;2022-08-25T07:42:11;21.90;99.90
9311;DHT22;4694;52.464;13.480;2022-08-25T07:44:38;21.90;99.90
9311;DHT22;4694;52.464;13.480;2022-08-25T07:47:05;21.60;99.90
9311;DHT22;4694;52.464;13.480;2022-08-25T07:49:32;22.40;99.90
9311;DHT22;4694;52.464;13.480;2022-08-25T07:51:58;21.90;99.90
9311;DHT22;4694;52.464;13.480;2022-08-25T07:54:26;21.80;99.90
9311;DHT22;4694;52.464;13.480;2022-08-25T07:56:53;21.70;99.90
9311;DHT22;4694;52.464;13.480;2022-08-25T07:59:19;21.90;99.90
9311;DHT22;4694;52.464;13.480;2022-08-25T08:01:46;21.60;99.90
9311;DHT22;4694;52.464;13.480;2022-08-25T08:04:13;22.30;99.90
9311;DHT22;4694;52.464;13.480;2022-08-25T08:06:39;22.30;99.90
9311;DHT22;4694;52.464;13.480;2022-08-25T08:09:06;22.00;99.90
9311;DHT22;4694;52.464;13.480;2022-08-25T08:11:35;21.90;99.90
9311;DHT22;4694;52.464;13.480;2022-08-25T08:14:05;22.00;99.90
9311;DHT22;4694;52.464;13.480;2022-08-25T08:16:32;22.10;99.90
9311;DHT22;4694;52.464;13.480;2022-08-25T08:18:59;22.20;99.90
9311;DHT22;4694;52.464;13.480;2022-08-25T08:21:28;22.30;99.90
9311;DHT22;4694;52.464;13.480;2022-08-25T08:23:56;22.70;99.90
9311;DHT22;4694;52.464;13.480;2022-08-25T08:26:23;22.90;99.90
9311;DHT22;4694;52.464;13.480;2022-08-25T08:28:51;23.20;99.90
9311;DHT22;4694;52.464;13.480;2022-08-25T08:31:19;23.10;99.90
9311;DHT22;4694;52.464;13.480;2022-08-25T08:33:46;23.10;99.90
9311;DHT22;4694;52.464;13.480;2022-08-25T08:36:13;23.20;99.90
9311;DHT22;4694;52.464;13.480;2022-08-25T08:38:41;23.20;99.90
9311;DHT22;4694;52.464;13.480;2022-08-25T08:41:16;23.20;99.90
9311;DHT22;4694;52.464;13.480;2022-08-25T08:44:11;23.90;99.90
9311;DHT22;4694;52.464;13.480;2022-08-25T08:46:48;24.00;99.90
9311;DHT22;4694;52.464;13.480;2022-08-25T08:49:23;24.30;99.90
9311;DHT22;4694;52.464;13.480;2022-08-25T08:51:56;24.10;99.90
9311;DHT22;4694;52.464;13.480;2022-08-25T08:54:25;24.50;99.90
9311;DHT22;4694;52.464;13.480;2022-08-25T08:57:02;25.40;99.90
9311;DHT22;4694;52.464;13.480;2022-08-25T08:59:39;25.40;99.90
9311;DHT22;4694;52.464;13.480;2022-08-25T09:02:13;26.20;99.90
9311;DHT22;4694;52.464;13.480;2022-08-25T09:04:47;25.50;99.90
9311;DHT22;4694;52.464;13.480;2022-08-25T09:07:18;25.10;99.90
9311;DHT22;4694;52.464;13.480;2022-08-25T09:09:46;24.80;99.90
9311;DHT22;4694;52.464;13.480;2022-08-25T09:12:20;24.60;99.90
9311;DHT22;4694;52.464;13.480;2022-08-25T09:15:01;24.60;99.90
9311;DHT22;4694;52.464;13.480;2022-08-25T09:17:45;24.30;99.90
9311;DHT22;4694;52.464;13.480;2022-08-25T09:23:32;24.30;99.90
9311;DHT22;4694;52.464;13.480;2022-08-25T09:26:20;24.80;99.90
9311;DHT22;4694;52.464;13.480;2022-08-25T09:28:50;24.80;99.90
9311;DHT22;4694;52.464;13.480;2022-08-25T09:31:23;25.20;99.90
9311;DHT22;4694;52.464;13.480;2022-08-25T09:33:54;25.40;99.90
9311;DHT22;4694;52.464;13.480;2022-08-25T09:36:22;25.60;99.90
9311;DHT22;4694;52.464;13.480;2022-08-25T09:38:51;26.20;99.90
9311;DHT22;4694;52.464;13.480;2022-08-25T09:41:34;26.60;99.90
9311;DHT22;4694;52.464;13.480;2022-08-25T09:44:16;27.00;99.90
9311;DHT22;4694;52.464;13.480;2022-08-25T09:46:55;26.90;99.90
9311;DHT22;4694;52.464;13.480;2022-08-25T09:49:31;26.50;99.90
9311;DHT22;4694;52.464;13.480;2022-08-25T09:52:16;26.70;99.90
9311;DHT22;4694;52.464;13.480;2022-08-25T09:54:44;26.40;99.90
9311;DHT22;4694;52.464;13.480;2022-08-25T09:57:26;26.00;99.90
9311;DHT22;4694;52.464;13.480;2022-08-25T09:59:53;26.20;99.90
9311;DHT22;4694;52.464;13.480;2022-08-25T10:02:24;26.30;99.90
9311;DHT22;4694;52.464;13.480;2022-08-25T10:04:51;27.30;99.90
9311;DHT22;4694;52.464;13.480;2022-08-25T10:07:23;27.60;99.90
9311;DHT22;4694;52.464;13.480;2022-08-25T10:09:53;27.50;99.90
9311;DHT22;4694;52.464;13.480;2022-08-25T10:12:23;27.30;99.90
9311;DHT22;4694;52.464;13.480;2022-08-25T10:14:50;27.30;99.90
9311;DHT22;4694;52.464;13.480;2022-08-25T10:17:25;28.30;99.90
9311;DHT22;4694;52.464;13.480;2022-08-25T10:19:54;27.50;99.90
9311;DHT22;4694;52.464;13.480;2022-08-25T10:22:22;28.60;99.90
9311;DHT22;4694;52.464;13.480;2022-08-25T10:24:51;29.10;99.90
9311;DHT22;4694;52.464;13.480;2022-08-25T10:27:24;28.30;99.90
9311;DHT22;4694;52.464;13.480;2022-08-25T10:30:10;27.80;99.90
9311;DHT22;4694;52.464;13.480;2022-08-25T10:33:03;27.80;99.90
9311;DHT22;4694;52.464;13.480;2022-08-25T10:35:37;27.20;99.90
9311;DHT22;4694;52.464;13.480;2022-08-25T10:38:14;26.90;99.90
9311;DHT22;4694;52.464;13.480;2022-08-25T10:40:47;26.90;99.90
9311;DHT22;4694;52.464;13.480;2022-08-25T10:43:23;26.40;99.90
9311;DHT22;4694;52.464;13.480;2022-08-25T10:46:01;26.40;99.90
9311;DHT22;4694;52.464;13.480;2022-08-25T10:48:39;26.80;99.90
9311;DHT22;4694;52.464;13.480;2022-08-25T10:51:20;27.00;99.90
9311;DHT22;4694;52.464;13.480;2022-08-25T10:53:56;27.40;99.90
9311;DHT22;4694;52.464;13.480;2022-08-25T10:56:30;28.00;99.90
9311;DHT22;4694;52.464;13.480;2022-08-25T10:59:18;28.20;99.90
9311;DHT22;4694;52.464;13.480;2022-08-25T11:02:09;28.30;99.90
9311;DHT22;4694;52.464;13.480;2022-08-25T11:04:43;29.10;99.90
9311;DHT22;4694;52.464;13.480;2022-08-25T11:07:17;29.50;99.90
9311;DHT22;4694;52.464;13.480;2022-08-25T11:09:47;30.80;99.90
9311;DHT22;4694;52.464;13.480;2022-08-25T11:12:30;31.30;99.90
9311;DHT22;4694;52.464;13.480;2022-08-25T11:14:59;31.30;99.90
9311;DHT22;4694;52.464;13.480;2022-08-25T11:17:31;31.40;99.90
9311;DHT22;4694;52.464;13.480;2022-08-25T11:20:06;30.30;99.90
9311;DHT22;4694;52.464;13.480;2022-08-25T11:22:39;30.10;99.90
9311;DHT22;4694;52.464;13.480;2022-08-25T11:25:13;29.90;99.90
9311;DHT22;4694;52.464;13.480;2022-08-25T11:27:46;29.80;99.90
9311;DHT22;4694;52.464;13.480;2022-08-25T11:30:16;30.40;99.90
9311;DHT22;4694;52.464;13.480;2022-08-25T11:32:46;30.10;99.90
9311;DHT22;4694;52.464;13.480;2022-08-25T11:35:17;30.10;99.90
9311;DHT22;4694;52.464;13.480;2022-08-25T11:38:01;28.80;99.90
9311;DHT22;4694;52.464;13.480;2022-08-25T11:40:53;28.40;99.90
9311;DHT22;4694;52.464;13.480;2022-08-25T11:43:37;28.70;99.90
9311;DHT22;4694;52.464;13.480;2022-08-25T11:46:23;29.30;99.90
9311;DHT22;4694;52.464;13.480;2022-08-25T11:48:59;29.30;99.90
9311;DHT22;4694;52.464;13.480;2022-08-25T11:51:32;29.60;99.90
9311;DHT22;4694;52.464;13.480;2022-08-25T11:54:15;31.00;99.90
9311;DHT22;4694;52.464;13.480;2022-08-25T11:56:51;30.50;99.90
9311;DHT22;4694;52.464;13.480;2022-08-25T12:02:33;29.70;99.90
9311;DHT22;4694;52.464;13.480;2022-08-25T12:05:00;30.20;99.90
9311;DHT22;4694;52.464;13.480;2022-08-25T12:10:20;32.10;99.90
9311;DHT22;4694;52.464;13.480;2022-08-25T12:15:58;31.30;99.90
9311;DHT22;4694;52.464;13.480;2022-08-25T12:18:43;31.60;99.90
9311;DHT22;4694;52.464;13.480;2022-08-25T12:21:29;31.80;99.90
9311;DHT22;4694;52.464;13.480;2022-08-25T12:24:12;32.20;99.90
9311;DHT22;4694;52.464;13.480;2022-08-25T12:52:05;36.90;96.90
9311;DHT22;4694;52.464;13.480;2022-08-25T12:54:44;37.50;93.20
9311;DHT22;4694;52.464;13.480;2022-08-25T12:57:38;38.10;94.40
9311;DHT22;4694;52.464;13.480;2022-08-25T13:10:51;32.60;99.90
9311;DHT22;4694;52.464;13.480;2022-08-25T13:13:30;33.20;97.90
9311;DHT22;4694;52.464;13.480;2022-08-25T13:16:05;31.10;99.20
9311;DHT22;4694;52.464;13.480;2022-08-25T13:18:34;30.50;99.90
9311;DHT22;4694;52.464;13.480;2022-08-25T13:21:06;31.10;99.90
9311;DHT22;4694;52.464;13.480;2022-08-25T13:23:37;30.40;99.90
9311;DHT22;4694;52.464;13.480;2022-08-25T13:26:09;29.50;99.90
9311;DHT22;4694;52.464;13.480;2022-08-25T13:28:39;29.60;99.90
9311;DHT22;4694;52.464;13.480;2022-08-25T13:31:08;30.10;99.90
9311;DHT22;4694;52.464;13.480;2022-08-25T13:33:36;29.20;99.90
9311;DHT22;4694;52.464;13.480;2022-08-25T13:36:03;31.10;99.90
9311;DHT22;4694;52.464;13.480;2022-08-25T13:38:48;31.70;99.50
9311;DHT22;4694;52.464;13.480;2022-08-25T13:41:22;32.20;98.50
9311;DHT22;4694;52.464;13.480;2022-08-25T13:43:50;31.70;98.40
9311;DHT22;4694;52.464;13.480;2022-08-25T13:46:19;30.80;99.10
9311;DHT22;4694;52.464;13.480;2022-08-25T13:48:46;29.50;99.90
9311;DHT22;4694;52.464;13.480;2022-08-25T13:51:20;29.00;99.90
9311;DHT22;4694;52.464;13.480;2022-08-25T13:53:53;29.40;99.90
9311;DHT22;4694;52.464;13.480;2022-08-25T13:56:28;30.30;99.90
9311;DHT22;4694;52.464;13.480;2022-08-25T13:58:56;31.90;99.60
9311;DHT22;4694;52.464;13.480;2022-08-25T14:01:25;30.60;99.40
9311;DHT22;4694;52.464;13.480;2022-08-25T14:03:54;30.00;99.90
9311;DHT22;4694;52.464;13.480;2022-08-25T14:06:23;31.30;99.90
9311;DHT22;4694;52.464;13.480;2022-08-25T14:09:06;32.10;99.70
9311;DHT22;4694;52.464;13.480;2022-08-25T14:11:43;32.50;98.60
9311;DHT22;4694;52.464;13.480;2022-08-25T14:14:12;31.80;97.80
9311;DHT22;4694;52.464;13.480;2022-08-25T14:16:46;32.30;97.80
9311;DHT22;4694;52.464;13.480;2022-08-25T14:19:16;32.50;97.70
9311;DHT22;4694;52.464;13.480;2022-08-25T14:21:42;31.70;98.00
9311;DHT22;4694;52.464;13.480;2022-08-25T14:24:14;32.10;98.30
9311;DHT22;4694;52.464;13.480;2022-08-25T14:26:42;32.90;96.70
9311;DHT22;4694;52.464;13.480;2022-08-25T14:29:10;33.10;95.60
9311;DHT22;4694;52.464;13.480;2022-08-25T14:31:39;33.10;95.40
9311;DHT22;4694;52.464;13.480;2022-08-25T14:34:12;32.90;95.70
9311;DHT22;4694;52.464;13.480;2022-08-25T14:36:39;32.90;95.10
9311;DHT22;4694;52.464;13.480;2022-08-25T14:39:07;33.30;95.50
9311;DHT22;4694;52.464;13.480;2022-08-25T14:41:36;32.20;96.00
9311;DHT22;4694;52.464;13.480;2022-08-25T14:44:08;32.00;97.40
9311;DHT22;4694;52.464;13.480;2022-08-25T14:46:37;32.10;96.50
9311;DHT22;4694;52.464;13.480;2022-08-25T14:49:11;32.60;96.30
9311;DHT22;4694;52.464;13.480;2022-08-25T14:51:40;32.40;95.90
9311;DHT22;4694;52.464;13.480;2022-08-25T14:54:10;32.10;95.90
9311;DHT22;4694;52.464;13.480;2022-08-25T14:56:44;31.80;96.70
9311;DHT22;4694;52.464;13.480;2022-08-25T14:59:14;31.80;96.50
9311;DHT22;4694;52.464;13.480;2022-08-25T15:01:41;31.60;96.90
9311;DHT22;4694;52.464;13.480;2022-08-25T15:04:11;29.60;99.00
9311;DHT22;4694;52.464;13.480;2022-08-25T15:06:40;29.80;99.10
9311;DHT22;4694;52.464;13.480;2022-08-25T15:09:09;30.00;99.90
9311;DHT22;4694;52.464;13.480;2022-08-25T15:11:36;29.20;99.90
9311;DHT22;4694;52.464;13.480;2022-08-25T15:14:03;28.70;99.90
9311;DHT22;4694;52.464;13.480;2022-08-25T15:16:33;29.80;99.90
9311;DHT22;4694;52.464;13.480;2022-08-25T15:19:04;30.10;99.90
9311;DHT22;4694;52.464;13.480;2022-08-25T15:21:31;30.20;99.90
9311;DHT22;4694;52.464;13.480;2022-08-25T15:23:59;30.00;99.90
9311;DHT22;4694;52.464;13.480;2022-08-25T15:26:26;29.70;99.80
9311;DHT22;4694;52.464;13.480;2022-08-25T15:28:53;29.70;99.50
9311;DHT22;4694;52.464;13.480;2022-08-25T15:31:20;29.70;99.90
9311;DHT22;4694;52.464;13.480;2022-08-25T15:33:49;29.40;99.90
9311;DHT22;4694;52.464;13.480;2022-08-25T15:36:18;29.40;99.90
9311;DHT22;4694;52.464;13.480;2022-08-25T15:38:47;29.20;99.90
9311;DHT22;4694;52.464;13.480;2022-08-25T15:41:14;28.70;99.90
9311;DHT22;4694;52.464;13.480;2022-08-25T15:43:40;28.70;99.90
9311;DHT22;4694;52.464;13.480;2022-08-25T15:46:08;28.70;99.90
9311;DHT22;4694;52.464;13.480;2022-08-25T15:48:39;28.60;99.90
9311;DHT22;4694;52.464;13.480;2022-08-25T15:51:07;28.70;99.90
9311;DHT22;4694;52.464;13.480;2022-08-25T15:53:34;28.70;99.90
9311;DHT22;4694;52.464;13.480;2022-08-25T15:56:03;28.70;99.90
9311;DHT22;4694;52.464;13.480;2022-08-25T15:58:30;28.30;99.90
9311;DHT22;4694;52.464;13.480;2022-08-25T16:00:56;28.10;99.90
9311;DHT22;4694;52.464;13.480;2022-08-25T16:03:23;28.30;99.90
9311;DHT22;4694;52.464;13.480;2022-08-25T16:05:50;28.40;99.90
9311;DHT22;4694;52.464;13.480;2022-08-25T16:08:18;28.50;99.90
9311;DHT22;4694;52.464;13.480;2022-08-25T16:10:46;28.60;99.90
9311;DHT22;4694;52.464;13.480;2022-08-25T16:13:13;28.40;99.90
9311;DHT22;4694;52.464;13.480;2022-08-25T16:15:45;28.50;99.90
9311;DHT22;4694;52.464;13.480;2022-08-25T16:18:12;27.80;99.90
9311;DHT22;4694;52.464;13.480;2022-08-25T16:20:42;28.00;99.90
9311;DHT22;4694;52.464;13.480;2022-08-25T16:23:11;27.90;99.90
9311;DHT22;4694;52.464;13.480;2022-08-25T16:25:40;28.10;99.90
9311;DHT22;4694;52.464;13.480;2022-08-25T16:28:08;28.00;99.90
9311;DHT22;4694;52.464;13.480;2022-08-25T16:30:35;28.20;99.90
9311;DHT22;4694;52.464;13.480;2022-08-25T16:33:04;28.10;99.90
9311;DHT22;4694;52.464;13.480;2022-08-25T16:35:33;28.00;99.90
9311;DHT22;4694;52.464;13.480;2022-08-25T16:37:59;28.10;99.90
9311;DHT22;4694;52.464;13.480;2022-08-25T16:40:26;27.50;99.90
9311;DHT22;4694;52.464;13.480;2022-08-25T16:42:55;27.40;99.90
9311;DHT22;4694;52.464;13.480;2022-08-25T16:45:22;27.40;99.90
9311;DHT22;4694;52.464;13.480;2022-08-25T16:47:49;27.50;99.90
9311;DHT22;4694;52.464;13.480;2022-08-25T17:13:03;27.10;99.90